Sardis City, Alabama
Current Conditions -  °F | °C
As of 2:35 PM on Friday 28 Nov 2014 (Local Time) from K8A0 Reporting Station
Clear Clear  
Wind Chill: 46°   Ceiling: Unl
Heat Index: 46°   Visibility: 10mi
Dew Point: 28°   Wind: 3mph
Humidity: 50%   Direction: 190°S
Pressure: 30.27"   Gusts: NA
Location:  34.1534°N, 86.1537°W
Report Text: K8A0 282035Z AUTO 19003KT 10SM CLR 08/M02 A3027 RMK AO2
Loading
Personal Weather Stations






























Interactive Weather Map New forecast layout! Learn more

10-Day Weather Forecast

Advertisements
Track Severe Weather on mobile